Time;durP1;ratioP1;P1;durP2;ratioP2;P2;SDS_P1;SDS_P2;PMS_P1;PMS_P2;Temp;Humidity;BMP_temperature;BMP_pressure;BME280_temperature;BME280_humidity;BME280_pressure;Samples;Min_cycle;Max_cycle;Signal;HPM_P1;HPM_P2
2021/09/14 00:01:27;;;;;;;4.03;3.63;;;;;;;;;;5077950;28;20680;-67
2021/09/14 00:03:52;;;;;;;4.60;4.00;;;;;;;;;;5060308;28;20289;-66
2021/09/14 00:06:17;;;;;;;7.13;5.13;;;;;;;;;;5077292;28;20281;-65
2021/09/14 00:08:43;;;;;;;4.20;3.73;;;;;;;;;;5077574;28;20208;-66
2021/09/14 00:11:08;;;;;;;5.43;4.37;;;;;;;;;;5077204;28;20306;-66
2021/09/14 00:13:33;;;;;;;4.67;4.00;;;;;;;;;;5077690;28;20338;-66
2021/09/14 00:15:59;;;;;;;6.03;4.57;;;;;;;;;;5077394;28;20280;-66
2021/09/14 00:18:24;;;;;;;7.37;4.30;;;;;;;;;;5077031;28;20595;-65
2021/09/14 00:20:49;;;;;;;5.07;3.53;;;;;;;;;;5077331;28;20245;-66
2021/09/14 00:23:14;;;;;;;5.80;4.20;;;;;;;;;;5076904;28;20307;-65
2021/09/14 00:25:40;;;;;;;6.17;4.37;;;;;;;;;;5077592;28;20220;-66
2021/09/14 00:28:05;;;;;;;7.10;4.37;;;;;;;;;;5076933;28;20228;-66
2021/09/14 00:30:30;;;;;;;5.07;4.20;;;;;;;;;;5077256;28;20303;-66
2021/09/14 00:32:55;;;;;;;7.83;4.07;;;;;;;;;;5077262;28;20220;-66
2021/09/14 00:35:21;;;;;;;4.47;4.07;;;;;;;;;;5076650;28;20538;-65
2021/09/14 00:37:46;;;;;;;4.50;3.87;;;;;;;;;;5077153;28;20227;-66
2021/09/14 00:40:12;;;;;;;5.23;3.63;;;;;;;;;;5076458;28;20316;-64
2021/09/14 00:42:37;;;;;;;5.43;4.27;;;;;;;;;;5077112;28;20299;-66
2021/09/14 00:45:04;;;;;;;6.40;5.20;;;;;;;;;;5076962;28;20243;-66
2021/09/14 00:47:29;;;;;;;6.57;4.93;;;;;;;;;;5058529;28;20221;-66
2021/09/14 00:49:54;;;;;;;7.93;5.43;;;;;;;;;;5076949;28;20984;-66
2021/09/14 00:52:20;;;;;;;7.30;5.57;;;;;;;;;;5076517;28;20216;-66
2021/09/14 00:54:45;;;;;;;5.67;4.90;;;;;;;;;;5076893;28;20271;-67
2021/09/14 00:57:11;;;;;;;5.17;4.43;;;;;;;;;;5076428;28;20640;-65
2021/09/14 00:59:36;;;;;;;7.00;5.23;;;;;;;;;;5059243;28;20644;-64
2021/09/14 01:02:02;;;;;;;5.30;4.13;;;;;;;;;;5076767;28;20225;-65
2021/09/14 01:04:28;;;;;;;5.73;4.40;;;;;;;;;;5074038;28;20303;-64
2021/09/14 01:06:54;;;;;;;7.13;5.63;;;;;;;;;;5067389;28;20474;-65
2021/09/14 01:09:20;;;;;;;5.13;4.70;;;;;;;;;;5079816;28;20800;-65
2021/09/14 01:11:45;;;;;;;8.83;4.80;;;;;;;;;;5089860;28;20216;-64
2021/09/14 01:14:11;;;;;;;5.77;4.10;;;;;;;;;;5087886;28;20974;-64
2021/09/14 01:16:37;;;;;;;7.57;4.80;;;;;;;;;;5082880;28;20227;-64
2021/09/14 01:19:06;;;;;;;5.10;4.60;;;;;;;;;;5084296;28;20680;-64
2021/09/14 01:21:32;;;;;;;5.80;4.63;;;;;;;;;;5089302;28;20541;-64
2021/09/14 01:23:58;;;;;;;5.00;4.50;;;;;;;;;;5088467;28;20466;-64
2021/09/14 01:26:24;;;;;;;4.50;4.10;;;;;;;;;;5082163;28;20454;-66
2021/09/14 01:28:49;;;;;;;5.00;4.20;;;;;;;;;;5084181;28;20466;-65
2021/09/14 01:31:14;;;;;;;5.57;4.57;;;;;;;;;;5088925;28;20228;-64
2021/09/14 01:33:46;;;;;;;6.50;4.20;;;;;;;;;;5087703;28;20591;-65
2021/09/14 01:36:11;;;;;;;5.60;4.60;;;;;;;;;;5081949;28;20569;-64
2021/09/14 01:38:36;;;;;;;6.47;4.00;;;;;;;;;;5083690;28;20473;-64
2021/09/14 01:41:01;;;;;;;7.13;4.60;;;;;;;;;;5089282;28;20383;-64
2021/09/14 01:43:27;;;;;;;5.37;4.40;;;;;;;;;;5087585;28;20231;-65
2021/09/14 01:45:52;;;;;;;4.50;4.10;;;;;;;;;;5082381;28;20668;-65
2021/09/14 01:48:17;;;;;;;8.23;6.10;;;;;;;;;;5083862;28;20228;-64
2021/09/14 01:50:42;;;;;;;5.50;5.00;;;;;;;;;;5089126;28;20721;-66
2021/09/14 01:53:08;;;;;;;7.50;4.80;;;;;;;;;;5083040;28;20220;-65
2021/09/14 01:55:33;;;;;;;8.17;4.90;;;;;;;;;;5090537;28;21094;-66
2021/09/14 01:57:59;;;;;;;6.27;4.27;;;;;;;;;;5095695;28;20281;-64
2021/09/14 02:00:27;;;;;;;6.03;5.40;;;;;;;;;;5081131;28;20228;-65
2021/09/14 02:03:11;;;;;;;5.80;4.57;;;;;;;;;;5095624;28;20220;-65
2021/09/14 02:05:50;;;;;;;5.77;4.47;;;;;;;;;;5069020;28;20916;-65
2021/09/14 02:41:15;;;;;;;4.47;4.03;;;;;;;;;;5078638;28;20535;-66
2021/09/14 02:43:51;;;;;;;5.30;4.30;;;;;;;;;;5058617;28;20468;-66
2021/09/14 02:59:38;;;;;;;7.43;4.47;;;;;;;;;;5087538;28;20459;-66
2021/09/14 03:02:05;;;;;;;4.90;4.27;;;;;;;;;;5069904;28;20212;-65
2021/09/14 03:04:30;;;;;;;6.27;5.27;;;;;;;;;;5066701;28;20541;-65
2021/09/14 03:06:56;;;;;;;5.07;4.57;;;;;;;;;;5066992;28;20526;-66
2021/09/14 03:09:21;;;;;;;5.30;3.93;;;;;;;;;;5075947;28;20707;-66
2021/09/14 03:11:47;;;;;;;4.53;4.10;;;;;;;;;;5063771;28;20288;-66
2021/09/14 03:14:12;;;;;;;5.27;4.23;;;;;;;;;;5085246;28;20243;-66
2021/09/14 03:16:38;;;;;;;5.87;4.80;;;;;;;;;;5079430;28;20322;-66
2021/09/14 03:19:04;;;;;;;5.53;4.83;;;;;;;;;;5087400;28;20656;-67
2021/09/14 03:21:30;;;;;;;8.03;4.50;;;;;;;;;;5086343;28;20458;-66
2021/09/14 03:23:55;;;;;;;5.67;5.07;;;;;;;;;;5080112;28;20223;-66
2021/09/14 03:26:21;;;;;;;4.50;4.07;;;;;;;;;;5086798;28;20230;-66
2021/09/14 03:28:47;;;;;;;6.77;4.80;;;;;;;;;;5079582;28;20212;-65
2021/09/14 03:31:15;;;;;;;4.83;4.27;;;;;;;;;;5080829;28;20286;-66
2021/09/14 03:33:41;;;;;;;7.40;4.60;;;;;;;;;;5085826;28;21011;-66
2021/09/14 03:36:06;;;;;;;4.80;3.60;;;;;;;;;;5086458;28;20462;-66
2021/09/14 03:38:32;;;;;;;7.50;4.80;;;;;;;;;;5079659;28;20273;-65
2021/09/14 03:40:57;;;;;;;4.53;3.93;;;;;;;;;;5081241;28;20532;-66
2021/09/14 03:43:22;;;;;;;4.17;3.77;;;;;;;;;;5087341;28;20304;-66
2021/09/14 03:45:48;;;;;;;5.60;4.20;;;;;;;;;;5085347;28;20697;-66
2021/09/14 03:48:14;;;;;;;3.93;3.63;;;;;;;;;;5080326;28;20290;-66
2021/09/14 03:50:40;;;;;;;5.23;4.63;;;;;;;;;;5081447;28;20224;-65
2021/09/14 03:53:05;;;;;;;4.53;4.07;;;;;;;;;;5086855;28;20557;-66
2021/09/14 03:55:31;;;;;;;5.50;4.57;;;;;;;;;;5085096;28;20477;-66
2021/09/14 03:57:56;;;;;;;7.70;4.10;;;;;;;;;;5079896;28;20230;-65
2021/09/14 04:00:22;;;;;;;6.03;4.60;;;;;;;;;;5081621;28;20685;-66
2021/09/14 04:02:53;;;;;;;6.10;4.60;;;;;;;;;;5086516;28;20229;-65
2021/09/14 04:10:42;;;;;;;6.93;4.40;;;;;;;;;;5079852;28;20587;-65
2021/09/14 04:13:08;;;;;;;7.77;4.60;;;;;;;;;;5082303;28;20458;-65
2021/09/14 04:15:34;;;;;;;5.20;4.20;;;;;;;;;;5068784;28;20459;-65
2021/09/14 04:17:59;;;;;;;5.10;4.60;;;;;;;;;;5066472;28;20465;-66
2021/09/14 04:20:25;;;;;;;9.83;5.17;;;;;;;;;;5079449;28;20491;-65
2021/09/14 04:22:50;;;;;;;6.00;5.37;;;;;;;;;;5082605;28;20254;-65
2021/09/14 04:25:16;;;;;;;5.90;4.77;;;;;;;;;;5068965;28;20216;-65
2021/09/14 04:27:41;;;;;;;6.80;4.93;;;;;;;;;;5083724;28;20544;-65
2021/09/14 04:30:08;;;;;;;7.17;4.80;;;;;;;;;;5079274;28;20223;-65
2021/09/14 04:32:34;;;;;;;5.07;4.33;;;;;;;;;;5082641;28;20216;-65
2021/09/14 04:34:59;;;;;;;4.77;4.30;;;;;;;;;;5085992;28;20993;-65
2021/09/14 04:37:25;;;;;;;5.90;5.30;;;;;;;;;;5084024;28;20220;-67
2021/09/14 04:39:51;;;;;;;6.07;4.87;;;;;;;;;;5061718;28;20303;-66
2021/09/14 04:42:16;;;;;;;4.90;4.43;;;;;;;;;;5064844;28;20231;-66
2021/09/14 04:44:42;;;;;;;5.53;4.90;;;;;;;;;;5088316;28;20954;-66
2021/09/14 04:47:08;;;;;;;5.27;4.77;;;;;;;;;;5087078;28;20285;-66
2021/09/14 04:49:33;;;;;;;6.67;4.97;;;;;;;;;;5083618;28;20303;-65
2021/09/14 04:52:03;;;;;;;6.10;4.97;;;;;;;;;;5086082;28;20675;-65
2021/09/14 04:54:29;;;;;;;5.67;4.80;;;;;;;;;;5088212;28;20216;-65
2021/09/14 04:56:54;;;;;;;5.73;4.57;;;;;;;;;;5086153;28;20760;-66
2021/09/14 04:59:19;;;;;;;6.90;4.50;;;;;;;;;;5090267;28;20552;-66
2021/09/14 05:01:44;;;;;;;6.87;5.30;;;;;;;;;;5087150;28;20232;-65
2021/09/14 05:04:10;;;;;;;6.90;5.13;;;;;;;;;;5082487;28;20216;-64
2021/09/14 05:06:35;;;;;;;5.73;5.13;;;;;;;;;;5065168;28;20218;-65
2021/09/14 05:09:01;;;;;;;8.00;4.97;;;;;;;;;;5086793;28;20307;-64
2021/09/14 05:11:26;;;;;;;6.03;5.47;;;;;;;;;;5086904;28;20215;-64
2021/09/14 05:13:51;;;;;;;6.83;5.60;;;;;;;;;;5082244;28;20608;-64
2021/09/14 05:16:17;;;;;;;7.93;5.60;;;;;;;;;;5085942;28;20596;-65
2021/09/14 05:18:46;;;;;;;8.70;5.17;;;;;;;;;;5089716;28;20225;-64
2021/09/14 05:21:11;;;;;;;5.77;4.80;;;;;;;;;;5086301;28;20236;-64
2021/09/14 05:23:37;;;;;;;6.27;5.70;;;;;;;;;;5082615;28;20476;-64
2021/09/14 05:26:03;;;;;;;8.07;7.03;;;;;;;;;;5086161;28;20236;-65
2021/09/14 05:28:29;;;;;;;7.70;5.73;;;;;;;;;;5089718;28;20295;-65
2021/09/14 05:30:55;;;;;;;8.40;5.67;;;;;;;;;;5085706;28;20545;-64
2021/09/14 05:33:20;;;;;;;7.73;5.67;;;;;;;;;;5082648;28;20542;-64
2021/09/14 05:35:49;;;;;;;6.93;5.57;;;;;;;;;;5085929;28;20315;-64
2021/09/14 05:38:15;;;;;;;7.83;5.30;;;;;;;;;;5089180;28;20625;-64
2021/09/14 05:40:41;;;;;;;8.30;6.30;;;;;;;;;;5086578;28;20800;-64
2021/09/14 05:43:06;;;;;;;7.00;5.93;;;;;;;;;;5081882;28;20462;-63
2021/09/14 05:45:32;;;;;;;5.60;5.10;;;;;;;;;;5085613;28;20644;-64
2021/09/14 05:47:58;;;;;;;7.50;5.20;;;;;;;;;;5088667;28;20216;-65
2021/09/14 05:50:23;;;;;;;6.40;5.80;;;;;;;;;;5067970;28;20364;-64
2021/09/14 05:52:49;;;;;;;8.03;5.80;;;;;;;;;;5082133;28;20458;-63
2021/09/14 05:55:14;;;;;;;7.70;6.17;;;;;;;;;;5088169;28;20227;-64
2021/09/14 05:57:39;;;;;;;7.00;6.30;;;;;;;;;;5081440;28;20976;-64
2021/09/14 06:00:05;;;;;;;7.87;5.90;;;;;;;;;;5085809;28;20235;-64
2021/09/14 06:02:31;;;;;;;7.17;5.80;;;;;;;;;;5088789;28;20663;-64
2021/09/14 06:04:56;;;;;;;6.77;6.10;;;;;;;;;;5084250;28;20472;-64
2021/09/14 06:07:21;;;;;;;8.60;6.00;;;;;;;;;;5068125;28;20247;-64
2021/09/14 06:09:47;;;;;;;6.63;6.00;;;;;;;;;;5085209;28;20520;-64
2021/09/14 06:12:12;;;;;;;6.83;6.13;;;;;;;;;;5088631;28;20248;-64
2021/09/14 06:14:37;;;;;;;7.37;5.93;;;;;;;;;;5085038;28;20242;-64
2021/09/14 06:17:03;;;;;;;6.20;5.50;;;;;;;;;;5080872;28;20236;-64
2021/09/14 06:19:29;;;;;;;6.73;4.77;;;;;;;;;;5085840;28;20224;-64
2021/09/14 06:21:54;;;;;;;7.00;5.53;;;;;;;;;;5087641;28;20223;-69
2021/09/14 06:24:19;;;;;;;6.53;5.17;;;;;;;;;;5084164;28;20215;-65
2021/09/14 06:26:45;;;;;;;7.30;6.17;;;;;;;;;;5081269;28;20209;-64
2021/09/14 06:29:10;;;;;;;8.03;5.20;;;;;;;;;;5085601;28;20236;-64
2021/09/14 06:31:35;;;;;;;7.97;5.13;;;;;;;;;;5088345;28;20553;-64
2021/09/14 06:34:01;;;;;;;9.87;5.73;;;;;;;;;;5082807;28;20219;-64
2021/09/14 06:36:26;;;;;;;8.97;5.70;;;;;;;;;;5080905;28;20235;-64
2021/09/14 06:38:52;;;;;;;7.63;5.30;;;;;;;;;;5086517;28;20220;-64
2021/09/14 06:41:17;;;;;;;5.67;5.00;;;;;;;;;;5087614;28;20272;-64
2021/09/14 06:43:43;;;;;;;8.00;4.80;;;;;;;;;;5082272;28;20230;-64
2021/09/14 06:46:08;;;;;;;9.13;5.67;;;;;;;;;;5080386;28;20586;-64
2021/09/14 06:48:34;;;;;;;8.20;5.53;;;;;;;;;;5087064;28;20307;-64
2021/09/14 06:50:59;;;;;;;6.73;4.67;;;;;;;;;;5087413;28;20546;-63
2021/09/14 06:53:28;;;;;;;9.60;5.10;;;;;;;;;;5080543;28;20553;-64
2021/09/14 06:55:54;;;;;;;11.27;5.50;;;;;;;;;;5087933;28;20231;-64
2021/09/14 06:58:19;;;;;;;8.20;4.37;;;;;;;;;;5081307;28;20468;-66
2021/09/14 07:00:45;;;;;;;6.90;4.80;;;;;;;;;;5080654;28;20595;-65
2021/09/14 07:03:10;;;;;;;12.03;4.07;;;;;;;;;;5086413;28;20660;-64
2021/09/14 07:05:35;;;;;;;8.40;4.60;;;;;;;;;;5085772;28;20227;-65
2021/09/14 07:08:01;;;;;;;6.60;4.27;;;;;;;;;;5082870;28;20230;-64
2021/09/14 07:10:26;;;;;;;11.80;5.23;;;;;;;;;;5080312;28;20303;-64
2021/09/14 07:12:52;;;;;;;10.43;4.60;;;;;;;;;;5067147;28;20266;-64
2021/09/14 07:15:18;;;;;;;10.70;4.67;;;;;;;;;;5086897;28;20224;-63
2021/09/14 07:17:43;;;;;;;9.73;4.50;;;;;;;;;;5082880;28;20268;-64
2021/09/14 07:20:09;;;;;;;11.13;4.60;;;;;;;;;;5079563;28;20236;-64
2021/09/14 07:22:35;;;;;;;9.67;4.80;;;;;;;;;;5085454;28;20266;-64
2021/09/14 07:25:01;;;;;;;8.40;4.47;;;;;;;;;;5087206;28;20890;-65
2021/09/14 07:27:26;;;;;;;10.13;4.00;;;;;;;;;;5082359;28;20220;-64
2021/09/14 07:29:52;;;;;;;10.23;4.77;;;;;;;;;;5080072;28;20550;-64
2021/09/14 07:32:17;;;;;;;7.83;3.80;;;;;;;;;;5085441;28;20221;-64
2021/09/14 07:34:43;;;;;;;8.17;3.30;;;;;;;;;;5069331;28;20224;-65
2021/09/14 07:37:08;;;;;;;4.80;4.10;;;;;;;;;;5081808;28;20614;-64
2021/09/14 07:39:34;;;;;;;7.23;3.97;;;;;;;;;;5080332;28;20353;-64
2021/09/14 07:41:59;;;;;;;7.97;3.77;;;;;;;;;;5085419;28;20232;-63
2021/09/14 07:44:25;;;;;;;6.00;3.20;;;;;;;;;;5087070;28;20726;-65
2021/09/14 07:46:50;;;;;;;7.73;3.87;;;;;;;;;;5081569;28;20220;-65
2021/09/14 07:49:15;;;;;;;6.00;3.73;;;;;;;;;;5079699;28;20239;-64
2021/09/14 07:51:41;;;;;;;6.60;4.10;;;;;;;;;;5086533;28;20558;-65
2021/09/14 07:54:06;;;;;;;6.50;3.97;;;;;;;;;;5081002;28;20602;-64
2021/09/14 07:56:31;;;;;;;5.77;3.93;;;;;;;;;;5086216;28;20286;-65
2021/09/14 07:58:57;;;;;;;4.20;3.70;;;;;;;;;;5086782;28;20567;-65
2021/09/14 08:01:22;;;;;;;3.80;3.33;;;;;;;;;;5080125;28;20244;-65
2021/09/14 08:03:47;;;;;;;3.97;3.53;;;;;;;;;;5061991;28;20316;-64
2021/09/14 08:06:13;;;;;;;7.13;3.23;;;;;;;;;;5077943;28;20676;-65
2021/09/14 08:08:38;;;;;;;5.20;3.27;;;;;;;;;;5081200;28;20227;-65
2021/09/14 08:11:04;;;;;;;3.80;3.00;;;;;;;;;;5080559;28;20567;-65
2021/09/14 08:13:29;;;;;;;6.27;3.60;;;;;;;;;;5062240;28;20276;-65
2021/09/14 08:15:55;;;;;;;5.50;4.20;;;;;;;;;;5085924;28;20311;-66
2021/09/14 08:18:20;;;;;;;4.50;3.17;;;;;;;;;;5086621;28;20301;-65
2021/09/14 08:20:45;;;;;;;7.03;3.50;;;;;;;;;;5083992;28;20235;-66
2021/09/14 08:23:11;;;;;;;7.80;3.73;;;;;;;;;;5083396;28;20298;-64
2021/09/14 08:25:36;;;;;;;5.20;4.70;;;;;;;;;;5079277;28;20235;-63
2021/09/14 08:28:01;;;;;;;4.50;3.93;;;;;;;;;;5090375;28;20227;-64
2021/09/14 08:30:27;;;;;;;4.20;3.80;;;;;;;;;;5083757;28;20628;-64
2021/09/14 08:32:52;;;;;;;5.30;3.27;;;;;;;;;;5083924;28;20208;-63
2021/09/14 08:35:18;;;;;;;5.57;3.70;;;;;;;;;;5072437;28;20614;-63
2021/09/14 08:37:44;;;;;;;5.33;3.40;;;;;;;;;;5090353;28;20227;-64
2021/09/14 08:40:10;;;;;;;5.00;3.50;;;;;;;;;;5082850;28;20857;-65
2021/09/14 08:42:36;;;;;;;6.23;3.53;;;;;;;;;;5083860;28;20299;-63
2021/09/14 08:45:04;;;;;;;10.50;4.17;;;;;;;;;;5089811;28;20467;-64
2021/09/14 08:47:31;;;;;;;5.83;4.47;;;;;;;;;;5072618;28;20466;-63
2021/09/14 08:49:56;;;;;;;7.83;3.80;;;;;;;;;;5083272;28;20487;-63
2021/09/14 08:52:24;;;;;;;4.53;3.87;;;;;;;;;;5083470;28;20783;-62
2021/09/14 08:54:50;;;;;;;5.13;3.60;;;;;;;;;;5089678;28;20607;-63
2021/09/14 08:57:15;;;;;;;5.60;2.83;;;;;;;;;;5089284;28;20561;-64
2021/09/14 08:59:46;;;;;;;3.87;3.37;;;;;;;;;;5082785;28;20289;-65
2021/09/14 09:02:16;;;;;;;6.03;3.70;;;;;;;;;;5082564;28;20603;-65
2021/09/14 09:05:04;;;;;;;6.23;4.40;;;;;;;;;;5053924;28;20510;-63
2021/09/14 09:07:34;;;;;;;6.77;5.70;;;;;;;;;;5068968;28;20839;-64
2021/09/14 09:10:13;;;;;;;7.83;5.17;;;;;;;;;;5084524;28;20485;-63
2021/09/14 09:12:40;;;;;;;6.17;4.37;;;;;;;;;;5067598;28;20458;-64
2021/09/14 09:15:08;;;;;;;7.47;4.97;;;;;;;;;;5089828;28;20566;-63
2021/09/14 09:17:34;;;;;;;8.77;4.50;;;;;;;;;;5088573;28;20558;-63
2021/09/14 09:20:01;;;;;;;8.17;4.47;;;;;;;;;;5089305;28;20474;-64
2021/09/14 09:22:29;;;;;;;6.80;4.07;;;;;;;;;;5083364;28;20336;-63
2021/09/14 09:24:55;;;;;;;4.30;3.33;;;;;;;;;;5082559;28;20474;-64
2021/09/14 09:27:25;;;;;;;6.37;3.67;;;;;;;;;;5087742;28;21045;-63
2021/09/14 09:30:04;;;;;;;3.53;3.20;;;;;;;;;;5089421;28;20469;-63
2021/09/14 09:32:47;;;;;;;7.17;4.33;;;;;;;;;;5083974;28;20462;-63
2021/09/14 09:35:27;;;;;;;3.90;3.17;;;;;;;;;;5089313;28;20482;-63
2021/09/14 09:37:54;;;;;;;3.73;3.03;;;;;;;;;;5083615;28;20793;-62
2021/09/14 09:40:35;;;;;;;3.73;3.10;;;;;;;;;;5065477;28;20859;-65
2021/09/14 09:43:05;;;;;;;4.30;3.00;;;;;;;;;;5081411;28;20458;-64
2021/09/14 09:45:31;;;;;;;7.47;4.60;;;;;;;;;;5085618;28;20538;-63
2021/09/14 09:47:56;;;;;;;6.43;3.57;;;;;;;;;;5078334;28;20538;-63
2021/09/14 09:50:22;;;;;;;3.73;3.10;;;;;;;;;;5086654;28;20212;-64
2021/09/14 09:52:48;;;;;;;4.33;3.40;;;;;;;;;;5089289;28;20252;-63
2021/09/14 09:55:13;;;;;;;7.30;3.57;;;;;;;;;;5083791;28;20534;-63
2021/09/14 09:57:39;;;;;;;6.10;3.60;;;;;;;;;;5081791;28;20217;-64
2021/09/14 10:00:12;;;;;;;10.17;3.87;;;;;;;;;;5068735;28;20569;-63
2021/09/14 10:02:41;;;;;;;4.23;3.20;;;;;;;;;;5071347;28;20961;-64
2021/09/14 10:05:08;;;;;;;2.93;2.73;;;;;;;;;;5085225;28;20515;-64
2021/09/14 10:07:34;;;;;;;3.97;3.20;;;;;;;;;;5051030;28;20458;-64
2021/09/14 10:10:03;;;;;;;3.77;2.90;;;;;;;;;;5065473;28;20482;-63
2021/09/14 10:12:33;;;;;;;4.40;3.50;;;;;;;;;;5071035;28;20216;-64
2021/09/14 10:15:02;;;;;;;3.40;3.10;;;;;;;;;;5087634;28;20595;-63
2021/09/14 10:17:28;;;;;;;6.00;3.53;;;;;;;;;;5081550;28;20840;-63
2021/09/14 10:19:54;;;;;;;4.10;2.93;;;;;;;;;;5081429;28;20848;-63
2021/09/14 10:22:24;;;;;;;3.73;3.43;;;;;;;;;;5087915;28;20455;-64
2021/09/14 10:24:52;;;;;;;4.90;3.27;;;;;;;;;;5088529;28;20268;-63
2021/09/14 10:27:17;;;;;;;5.30;3.97;;;;;;;;;;5081928;28;20948;-63
2021/09/14 10:29:43;;;;;;;5.93;4.70;;;;;;;;;;5081284;28;20549;-63
2021/09/14 10:32:13;;;;;;;5.80;5.20;;;;;;;;;;5087268;28;20573;-64
2021/09/14 10:34:51;;;;;;;3.63;3.33;;;;;;;;;;5088187;28;20310;-64
2021/09/14 10:37:17;;;;;;;4.33;2.97;;;;;;;;;;5084476;28;20462;-63
2021/09/14 10:39:44;;;;;;;4.90;3.87;;;;;;;;;;5063429;28;20480;-63
2021/09/14 10:42:16;;;;;;;8.73;7.23;;;;;;;;;;5083808;28;20216;-64
2021/09/14 10:44:41;;;;;;;4.97;4.10;;;;;;;;;;5053796;28;20950;-63
2021/09/14 10:47:18;;;;;;;5.30;4.80;;;;;;;;;;5084869;28;20469;-63
2021/09/14 10:49:47;;;;;;;7.43;5.87;;;;;;;;;;5081077;28;20223;-65
2021/09/14 10:52:14;;;;;;;4.80;3.83;;;;;;;;;;5047082;28;20941;-63
2021/09/14 10:54:47;;;;;;;4.40;3.87;;;;;;;;;;5087730;28;20455;-64
2021/09/14 10:57:13;;;;;;;3.80;3.43;;;;;;;;;;5084475;28;20471;-64
2021/09/14 10:59:38;;;;;;;5.03;3.97;;;;;;;;;;5087819;28;20799;-64
2021/09/14 11:02:04;;;;;;;5.47;3.60;;;;;;;;;;5087045;28;20612;-64
2021/09/14 11:04:29;;;;;;;5.07;3.60;;;;;;;;;;5080935;28;20547;-64
2021/09/14 11:06:55;;;;;;;5.80;3.87;;;;;;;;;;5063038;28;20567;-63
2021/09/14 11:09:23;;;;;;;6.50;3.53;;;;;;;;;;5087052;28;20256;-63
2021/09/14 11:11:49;;;;;;;7.50;4.00;;;;;;;;;;5080611;28;20300;-64
2021/09/14 11:14:14;;;;;;;4.60;3.30;;;;;;;;;;5072330;28;20479;-62
2021/09/14 11:16:39;;;;;;;5.03;3.60;;;;;;;;;;5071871;28;20553;-62
2021/09/14 11:19:05;;;;;;;4.20;3.80;;;;;;;;;;5071592;28;20291;-61
2021/09/14 11:21:30;;;;;;;4.00;3.70;;;;;;;;;;5071685;28;20239;-62
2021/09/14 11:23:55;;;;;;;4.77;3.83;;;;;;;;;;5071967;28;20308;-63
2021/09/14 11:26:21;;;;;;;4.70;4.10;;;;;;;;;;5073479;28;20566;-63
2021/09/14 11:28:54;;;;;;;4.50;3.73;;;;;;;;;;5074107;28;20246;-61
2021/09/14 11:31:19;;;;;;;5.67;4.50;;;;;;;;;;5073400;28;20576;-60
2021/09/14 11:33:46;;;;;;;4.20;3.50;;;;;;;;;;5074052;28;20470;-61
2021/09/14 11:36:11;;;;;;;5.53;4.13;;;;;;;;;;5073332;28;20293;-61
2021/09/14 11:38:37;;;;;;;4.63;3.90;;;;;;;;;;5073792;28;20462;-60
2021/09/14 11:41:07;;;;;;;4.80;3.87;;;;;;;;;;5073639;28;20221;-61
2021/09/14 11:43:36;;;;;;;4.27;3.60;;;;;;;;;;5073597;28;20204;-60
2021/09/14 11:46:20;;;;;;;5.20;3.27;;;;;;;;;;5056176;28;20775;-60
2021/09/14 11:48:59;;;;;;;4.57;4.10;;;;;;;;;;5073678;28;20829;-60
2021/09/14 11:51:26;;;;;;;6.10;4.80;;;;;;;;;;5055723;28;20545;-60
2021/09/14 11:53:53;;;;;;;4.30;4.00;;;;;;;;;;5072350;28;20461;-60
2021/09/14 11:56:20;;;;;;;5.70;4.83;;;;;;;;;;5073744;28;20462;-60
2021/09/14 11:58:48;;;;;;;7.77;7.10;;;;;;;;;;5073052;28;20463;-60
2021/09/14 12:01:15;;;;;;;9.73;8.37;;;;;;;;;;5073491;28;20523;-60
2021/09/14 12:03:58;;;;;;;6.27;5.67;;;;;;;;;;5073490;28;20851;-61
2021/09/14 12:06:33;;;;;;;4.80;4.00;;;;;;;;;;5073554;28;20506;-60
2021/09/14 12:09:01;;;;;;;7.90;5.77;;;;;;;;;;5073454;28;20767;-61
2021/09/14 12:11:29;;;;;;;10.03;5.70;;;;;;;;;;5073510;28;20470;-60
2021/09/14 12:13:57;;;;;;;4.80;4.37;;;;;;;;;;5073254;28;20473;-60
2021/09/14 12:16:31;;;;;;;7.23;5.47;;;;;;;;;;5073433;28;20463;-61
2021/09/14 12:18:57;;;;;;;6.17;4.57;;;;;;;;;;5055580;28;20458;-61
2021/09/14 12:21:23;;;;;;;4.40;4.00;;;;;;;;;;5073360;28;20482;-61
2021/09/14 12:23:49;;;;;;;7.73;7.03;;;;;;;;;;5073241;28;20470;-61
2021/09/14 12:26:21;;;;;;;4.93;4.57;;;;;;;;;;5073517;28;20926;-60
2021/09/14 12:28:49;;;;;;;6.23;4.77;;;;;;;;;;5072898;28;20560;-61
2021/09/14 12:31:15;;;;;;;10.03;8.73;;;;;;;;;;5073204;28;20495;-60
2021/09/14 12:33:40;;;;;;;8.23;6.77;;;;;;;;;;5072843;28;20469;-60
2021/09/14 12:36:05;;;;;;;5.03;3.90;;;;;;;;;;5073294;28;20462;-60
2021/09/14 12:38:31;;;;;;;6.90;6.20;;;;;;;;;;5073464;28;20224;-60
2021/09/14 12:40:56;;;;;;;9.87;6.50;;;;;;;;;;5073098;28;20240;-61
2021/09/14 12:43:21;;;;;;;9.83;8.43;;;;;;;;;;5073636;28;20224;-60
2021/09/14 12:45:47;;;;;;;7.73;6.10;;;;;;;;;;5072836;28;20227;-60
2021/09/14 12:48:12;;;;;;;7.03;5.17;;;;;;;;;;5073552;28;20220;-61
2021/09/14 12:50:37;;;;;;;4.63;4.20;;;;;;;;;;5073057;28;20286;-62
2021/09/14 12:53:04;;;;;;;6.23;5.30;;;;;;;;;;5073195;28;20221;-61
2021/09/14 12:55:32;;;;;;;6.70;6.03;;;;;;;;;;5073193;28;20227;-60
2021/09/14 12:57:58;;;;;;;4.90;4.40;;;;;;;;;;5073015;28;20459;-63
2021/09/14 13:00:23;;;;;;;5.50;5.10;;;;;;;;;;5073709;28;20781;-62
2021/09/14 13:02:48;;;;;;;4.97;4.47;;;;;;;;;;5072937;28;20299;-63
2021/09/14 13:05:14;;;;;;;5.20;4.17;;;;;;;;;;5056784;28;20247;-63
2021/09/14 13:07:39;;;;;;;6.23;4.80;;;;;;;;;;5076455;28;20220;-63
2021/09/14 13:10:07;;;;;;;5.47;4.97;;;;;;;;;;5076707;28;20229;-63
2021/09/14 13:12:33;;;;;;;5.00;4.50;;;;;;;;;;5076720;28;20213;-62
2021/09/14 13:17:42;;;;;;;4.83;4.00;;;;;;;;;;5056420;28;20304;-63
2021/09/14 13:20:09;;;;;;;5.20;4.70;;;;;;;;;;5056398;28;20467;-63
2021/09/14 13:22:35;;;;;;;4.40;4.00;;;;;;;;;;5056773;28;20725;-63
2021/09/14 13:25:00;;;;;;;4.30;3.90;;;;;;;;;;5056016;28;20483;-62
2021/09/14 13:27:25;;;;;;;4.17;3.77;;;;;;;;;;5056504;28;20538;-63
2021/09/14 13:29:50;;;;;;;3.93;3.50;;;;;;;;;;5055810;28;20641;-63
2021/09/14 13:32:16;;;;;;;5.40;4.40;;;;;;;;;;5056463;28;20351;-62
2021/09/14 13:34:41;;;;;;;5.20;3.87;;;;;;;;;;5038272;28;20217;-63
2021/09/14 13:37:06;;;;;;;4.13;3.80;;;;;;;;;;5055928;28;20308;-63
2021/09/14 13:39:31;;;;;;;4.03;3.67;;;;;;;;;;5038451;28;20220;-62
2021/09/14 13:41:58;;;;;;;4.73;4.23;;;;;;;;;;5055749;28;20649;-63
2021/09/14 13:47:00;;;;;;;4.07;3.77;;;;;;;;;;5055539;28;20846;-63
2021/09/14 13:49:26;;;;;;;3.33;3.03;;;;;;;;;;5055839;28;20470;-62
2021/09/14 13:51:52;;;;;;;4.27;3.80;;;;;;;;;;5058420;28;20938;-62
2021/09/14 13:54:17;;;;;;;5.63;5.03;;;;;;;;;;5075349;28;20644;-63
2021/09/14 13:56:43;;;;;;;4.70;4.30;;;;;;;;;;5075686;28;20303;-63
2021/09/14 13:59:08;;;;;;;5.03;4.53;;;;;;;;;;5075973;28;20262;-63
2021/09/14 14:01:34;;;;;;;5.73;4.07;;;;;;;;;;5075597;28;20265;-63
2021/09/14 14:04:00;;;;;;;5.10;4.70;;;;;;;;;;5075234;28;20216;-63
2021/09/14 14:06:27;;;;;;;4.50;3.57;;;;;;;;;;5075538;28;20466;-63
2021/09/14 14:08:52;;;;;;;6.40;3.53;;;;;;;;;;5075264;28;20216;-63
2021/09/14 14:11:18;;;;;;;4.37;3.97;;;;;;;;;;5075510;28;20989;-63
2021/09/14 14:13:43;;;;;;;4.83;4.37;;;;;;;;;;5074948;28;20628;-63
2021/09/14 14:16:09;;;;;;;5.20;4.70;;;;;;;;;;5074944;28;20248;-63
2021/09/14 14:18:34;;;;;;;4.77;4.13;;;;;;;;;;5074987;28;20247;-64
2021/09/14 14:20:59;;;;;;;5.10;4.40;;;;;;;;;;5074754;28;20263;-63
2021/09/14 14:23:25;;;;;;;4.17;3.77;;;;;;;;;;5075079;28;20236;-63
2021/09/14 14:25:50;;;;;;;4.53;4.13;;;;;;;;;;5074699;28;20242;-63
2021/09/14 14:28:16;;;;;;;4.77;4.37;;;;;;;;;;5075168;28;20220;-63
2021/09/14 14:30:41;;;;;;;9.90;4.47;;;;;;;;;;5074832;28;20248;-62
2021/09/14 14:33:06;;;;;;;5.27;4.30;;;;;;;;;;5074591;28;20273;-63
2021/09/14 14:35:32;;;;;;;4.70;4.17;;;;;;;;;;5074964;28;20217;-63
2021/09/14 14:37:57;;;;;;;4.20;3.80;;;;;;;;;;5074554;28;20231;-63
2021/09/14 14:40:23;;;;;;;4.20;3.80;;;;;;;;;;5074772;28;20231;-63
2021/09/14 14:42:50;;;;;;;4.33;3.80;;;;;;;;;;5074435;28;20209;-63
2021/09/14 14:45:15;;;;;;;4.57;4.20;;;;;;;;;;5074746;28;20774;-63
2021/09/14 14:47:48;;;;;;;4.30;3.90;;;;;;;;;;5074580;28;20458;-63
2021/09/14 14:50:13;;;;;;;5.20;4.80;;;;;;;;;;5074293;28;20463;-63
2021/09/14 14:52:39;;;;;;;9.20;4.57;;;;;;;;;;5074583;28;20470;-63
2021/09/14 14:55:04;;;;;;;3.70;3.40;;;;;;;;;;5073970;28;20303;-63
2021/09/14 14:57:30;;;;;;;4.10;3.60;;;;;;;;;;5074631;28;20557;-63
2021/09/14 14:59:55;;;;;;;4.80;4.20;;;;;;;;;;5074053;28;20224;-62
2021/09/14 15:02:20;;;;;;;4.50;4.10;;;;;;;;;;5074435;28;20643;-63
2021/09/14 15:04:45;;;;;;;3.80;3.50;;;;;;;;;;5074592;28;20216;-60
2021/09/14 15:07:11;;;;;;;6.80;4.03;;;;;;;;;;5073755;28;20222;-60
2021/09/14 15:09:36;;;;;;;5.37;4.53;;;;;;;;;;5074309;28;20212;-61
2021/09/14 15:12:02;;;;;;;5.53;5.03;;;;;;;;;;5073917;28;20240;-61
2021/09/14 15:14:27;;;;;;;5.47;4.23;;;;;;;;;;5074312;28;20659;-61
2021/09/14 15:16:52;;;;;;;4.23;3.87;;;;;;;;;;5073571;28;20255;-61
2021/09/14 15:19:17;;;;;;;5.67;5.17;;;;;;;;;;5074263;28;20220;-60
2021/09/14 15:21:43;;;;;;;5.70;5.03;;;;;;;;;;5074050;28;20290;-61
2021/09/14 15:24:08;;;;;;;5.73;5.23;;;;;;;;;;5073436;28;20224;-61
2021/09/14 15:26:33;;;;;;;4.87;4.40;;;;;;;;;;5074173;28;20227;-61
2021/09/14 15:29:02;;;;;;;4.50;4.10;;;;;;;;;;5073451;28;20616;-61
2021/09/14 15:31:27;;;;;;;5.67;5.17;;;;;;;;;;5073833;28;20224;-60
2021/09/14 15:33:52;;;;;;;5.13;4.30;;;;;;;;;;5073401;28;20481;-61
2021/09/14 15:36:17;;;;;;;5.60;5.10;;;;;;;;;;5073877;28;20225;-60